createdAt,value
2023-05-22T00:02:33.098Z,17.58
2023-05-22T00:05:18.467Z,17.54
2023-05-22T00:08:01.478Z,17.53
2023-05-22T00:10:44.327Z,17.51
2023-05-22T00:13:27.227Z,17.52
2023-05-22T00:16:10.066Z,17.46
2023-05-22T00:18:55.331Z,17.46
2023-05-22T00:21:38.168Z,17.46
2023-05-22T00:24:21.055Z,17.41
2023-05-22T00:27:03.935Z,17.41
2023-05-22T00:29:46.805Z,17.41
2023-05-22T00:32:29.971Z,17.39
2023-05-22T00:35:14.256Z,17.38
2023-05-22T00:37:57.495Z,17.36
2023-05-22T00:40:40.754Z,17.36
2023-05-22T00:43:23.861Z,17.32
2023-05-22T00:46:07.612Z,17.31
2023-05-22T00:48:52.502Z,17.21
2023-05-22T00:51:36.808Z,17.19
2023-05-22T00:54:20.195Z,17.16
2023-05-22T00:57:03.630Z,17.15
2023-05-22T00:59:46.616Z,17.18
2023-05-22T01:02:32.994Z,17.16
2023-05-22T01:05:18.363Z,17.10
2023-05-22T01:08:02.899Z,17.08
2023-05-22T01:10:45.886Z,17.07
2023-05-22T01:13:35.424Z,17.09
2023-05-22T01:16:29.835Z,17.10
2023-05-22T01:19:23.652Z,17.07
2023-05-22T01:22:22.143Z,17.04
2023-05-22T01:25:26.715Z,17.01
2023-05-22T01:28:36.518Z,17.02
2023-05-22T01:31:25.566Z,17.00
2023-05-22T01:34:12.137Z,16.99
2023-05-22T01:36:57.448Z,16.97
2023-05-22T01:39:43.883Z,16.98
2023-05-22T01:42:27.111Z,16.97
2023-05-22T01:45:12.208Z,16.99
2023-05-22T01:47:56.524Z,17.00
2023-05-22T01:50:40.128Z,17.00
2023-05-22T01:53:32.495Z,16.98
2023-05-22T01:56:19.930Z,16.98
2023-05-22T01:59:14.985Z,16.96
2023-05-22T02:02:01.774Z,16.96
2023-05-22T02:04:49.966Z,16.95
2023-05-22T02:07:35.137Z,16.95
2023-05-22T02:10:19.598Z,16.93
2023-05-22T02:13:03.378Z,16.93
2023-05-22T02:15:47.031Z,16.92
2023-05-22T02:18:31.133Z,16.88
2023-05-22T02:21:15.463Z,16.90
2023-05-22T02:23:58.332Z,16.88
2023-05-22T02:26:42.496Z,16.89
2023-05-22T02:29:25.325Z,16.88
2023-05-22T02:32:09.204Z,16.89
2023-05-22T02:34:54.667Z,16.87
2023-05-22T02:37:39.203Z,16.87
2023-05-22T02:40:22.694Z,16.87
2023-05-22T02:43:06.456Z,16.85
2023-05-22T02:45:49.353Z,16.83
2023-05-22T02:48:33.430Z,16.83
2023-05-22T02:51:16.315Z,16.83
2023-05-22T02:54:00.540Z,16.82
2023-05-22T02:56:43.782Z,16.82
2023-05-22T02:59:26.929Z,16.83
2023-05-22T03:02:10.060Z,16.82
2023-05-22T03:04:53.181Z,16.82
2023-05-22T03:07:37.197Z,16.82
2023-05-22T03:10:21.564Z,16.84
2023-05-22T03:13:04.557Z,16.83
2023-05-22T03:15:47.452Z,16.82
2023-05-22T03:18:32.284Z,16.80
2023-05-22T03:21:15.104Z,16.78
2023-05-22T03:23:57.924Z,16.77
2023-05-22T03:26:42.203Z,16.73
2023-05-22T03:29:29.686Z,16.69
2023-05-22T03:32:12.667Z,16.66
2023-05-22T03:34:55.761Z,16.63
2023-05-22T03:37:38.662Z,16.64
2023-05-22T03:40:21.637Z,16.63
2023-05-22T03:43:05.868Z,16.64
2023-05-22T03:45:48.722Z,16.62
2023-05-22T03:48:32.298Z,16.64
2023-05-22T03:51:16.593Z,16.68
2023-05-22T03:54:00.368Z,16.71
2023-05-22T03:56:44.363Z,16.71
2023-05-22T03:59:28.581Z,16.73
2023-05-22T04:02:13.011Z,16.73
2023-05-22T04:04:56.087Z,16.71
2023-05-22T04:07:40.579Z,16.61
2023-05-22T04:10:23.701Z,16.60
2023-05-22T04:13:07.238Z,16.59
2023-05-22T04:15:52.935Z,16.58
2023-05-22T04:18:36.823Z,16.58
2023-05-22T04:21:20.246Z,16.58
2023-05-22T04:24:07.323Z,16.56
2023-05-22T04:26:50.588Z,16.58
2023-05-22T04:29:36.254Z,16.61
2023-05-22T04:32:21.868Z,16.61
2023-05-22T04:35:05.800Z,16.62
2023-05-22T04:37:48.665Z,16.64
2023-05-22T04:40:34.402Z,16.71
2023-05-22T04:43:18.855Z,16.75
2023-05-22T04:46:01.795Z,16.79
2023-05-22T04:48:47.224Z,16.82
2023-05-22T04:51:32.996Z,16.86
2023-05-22T04:54:15.877Z,16.89
2023-05-22T04:56:58.787Z,16.89
2023-05-22T04:59:42.439Z,16.90
2023-05-22T05:02:25.465Z,16.91
2023-05-22T05:05:10.620Z,16.92
2023-05-22T05:07:54.625Z,16.96
2023-05-22T05:10:37.879Z,17.03
2023-05-22T05:13:20.984Z,17.07
2023-05-22T05:16:04.378Z,17.12
2023-05-22T05:18:47.249Z,17.17
2023-05-22T05:21:31.631Z,17.21
2023-05-22T05:24:18.630Z,17.28
2023-05-22T05:27:02.704Z,17.33
2023-05-22T05:29:46.718Z,17.39
2023-05-22T05:32:41.934Z,17.43
2023-05-22T05:35:36.958Z,17.50
2023-05-22T05:38:26.062Z,17.57
2023-05-22T05:41:10.228Z,17.63
2023-05-22T05:43:53.911Z,17.69
2023-05-22T05:46:37.104Z,17.73
2023-05-22T05:49:20.946Z,17.82
2023-05-22T05:52:05.159Z,17.86
2023-05-22T05:54:52.468Z,17.94
2023-05-22T05:57:37.739Z,18.01
2023-05-22T06:00:24.149Z,18.10
2023-05-22T06:03:08.458Z,18.13
2023-05-22T06:06:07.238Z,18.18
2023-05-22T06:09:10.053Z,18.23
2023-05-22T06:12:14.259Z,18.29
2023-05-22T06:15:00.606Z,18.40
2023-05-22T06:17:43.709Z,18.48
2023-05-22T06:20:27.677Z,18.53
2023-05-22T06:23:11.344Z,18.62
2023-05-22T06:25:55.560Z,18.69
2023-05-22T06:28:41.479Z,18.72
2023-05-22T06:31:24.702Z,18.79
2023-05-22T06:34:11.127Z,18.85
2023-05-22T06:36:54.344Z,18.90
2023-05-22T06:39:41.429Z,18.96
2023-05-22T06:42:44.810Z,19.04
2023-05-22T06:45:38.608Z,19.08
2023-05-22T06:48:42.010Z,19.16
2023-05-22T06:51:29.943Z,19.22
2023-05-22T06:54:22.808Z,19.32
2023-05-22T06:57:11.622Z,19.36
2023-05-22T06:59:54.532Z,19.38
2023-05-22T07:02:57.059Z,19.49
2023-05-22T07:05:48.349Z,19.49
2023-05-22T07:08:31.330Z,19.56
2023-05-22T07:11:14.294Z,19.68
2023-05-22T07:13:57.685Z,19.72
2023-05-22T07:16:41.348Z,19.81
2023-05-22T07:19:26.732Z,19.86
2023-05-22T07:22:12.281Z,19.94
2023-05-22T07:24:56.251Z,20.04
2023-05-22T07:27:42.669Z,20.08
2023-05-22T07:30:27.837Z,20.13
2023-05-22T07:33:11.756Z,20.23
2023-05-22T07:35:56.624Z,20.31
2023-05-22T07:38:39.651Z,20.35
2023-05-22T07:41:24.124Z,20.48
2023-05-22T07:44:07.276Z,20.61
2023-05-22T07:46:54.406Z,20.69
2023-05-22T07:49:38.576Z,20.82
2023-05-22T07:52:24.281Z,20.85
2023-05-22T07:55:09.473Z,21.00
2023-05-22T07:57:54.963Z,21.10
2023-05-22T08:00:46.453Z,21.18
2023-05-22T08:06:12.359Z,21.35
2023-05-22T08:08:56.643Z,21.30
2023-05-22T08:11:42.178Z,21.40
2023-05-22T08:14:25.053Z,21.50
2023-05-22T08:17:08.069Z,21.59
2023-05-22T08:19:51.027Z,21.64
2023-05-22T08:22:34.715Z,21.62
2023-05-22T08:25:19.112Z,21.69
2023-05-22T08:28:02.054Z,21.81
2023-05-22T08:30:45.011Z,21.90
2023-05-22T08:33:28.218Z,21.89
2023-05-22T08:36:11.352Z,21.77
2023-05-22T08:38:54.192Z,21.95
2023-05-22T08:41:38.473Z,22.12
2023-05-22T08:44:22.075Z,22.23
2023-05-22T08:47:09.962Z,22.35
2023-05-22T08:49:54.879Z,22.24
2023-05-22T08:52:44.200Z,22.27
2023-05-22T08:55:27.791Z,22.21
2023-05-22T08:58:12.606Z,22.35
2023-05-22T09:00:55.694Z,22.45
2023-05-22T09:03:38.944Z,22.56
2023-05-22T09:06:21.917Z,22.73
2023-05-22T09:09:05.026Z,22.90
2023-05-22T09:11:47.988Z,23.10
2023-05-22T09:14:39.401Z,23.21
2023-05-22T09:17:22.411Z,23.41
2023-05-22T09:20:06.662Z,23.52
2023-05-22T09:22:49.655Z,23.58
2023-05-22T09:25:32.788Z,23.90
2023-05-22T09:28:15.884Z,24.14
2023-05-22T09:31:01.798Z,24.24
2023-05-22T09:33:46.211Z,24.58
2023-05-22T09:36:32.450Z,24.89
2023-05-22T09:39:15.601Z,25.23
2023-05-22T09:42:02.783Z,25.41
2023-05-22T09:44:50.128Z,25.61
2023-05-22T09:47:35.326Z,25.75
2023-05-22T09:50:18.577Z,25.95
2023-05-22T09:53:04.422Z,25.92
2023-05-22T09:55:49.508Z,26.20
2023-05-22T09:58:34.546Z,26.49
2023-05-22T10:01:18.581Z,26.77
2023-05-22T10:04:05.357Z,26.88
2023-05-22T10:06:52.260Z,27.14
2023-05-22T10:09:40.677Z,27.35
2023-05-22T10:12:25.822Z,27.34
2023-05-22T10:15:10.397Z,27.28
2023-05-22T10:17:53.279Z,27.40
2023-05-22T10:20:38.349Z,27.60
2023-05-22T10:23:22.519Z,27.90
2023-05-22T10:26:06.564Z,28.14
2023-05-22T10:28:54.883Z,28.28
2023-05-22T10:31:45.472Z,28.34
2023-05-22T10:34:52.680Z,28.26
2023-05-22T10:37:49.852Z,28.43
2023-05-22T10:40:36.236Z,28.61
2023-05-22T10:43:19.516Z,28.82
2023-05-22T10:46:07.224Z,29.04
2023-05-22T10:48:55.619Z,29.25
2023-05-22T10:51:38.871Z,29.56
2023-05-22T10:54:39.833Z,29.93
2023-05-22T10:57:25.451Z,29.86
2023-05-22T11:00:13.909Z,29.78
2023-05-22T11:03:17.353Z,29.77
2023-05-22T11:06:01.975Z,29.77
2023-05-22T11:08:44.853Z,29.80
2023-05-22T11:11:29.809Z,29.79
2023-05-22T11:14:14.115Z,29.61
2023-05-22T11:17:01.164Z,29.67
2023-05-22T11:19:44.224Z,29.81
2023-05-22T11:22:32.319Z,29.64
2023-05-22T11:25:18.463Z,29.80
2023-05-22T11:28:04.447Z,30.09
2023-05-22T11:30:47.752Z,29.95
2023-05-22T11:33:30.715Z,30.03
2023-05-22T11:36:14.158Z,30.23
2023-05-22T11:38:59.519Z,30.41
2023-05-22T11:41:42.405Z,30.60
2023-05-22T11:44:28.084Z,30.72
2023-05-22T11:47:11.522Z,30.73
2023-05-22T11:49:55.329Z,30.72
2023-05-22T11:52:41.022Z,30.76
2023-05-22T11:55:24.293Z,30.74
2023-05-22T11:58:07.318Z,30.84
2023-05-22T12:00:51.562Z,30.91
2023-05-22T12:03:34.683Z,31.16
2023-05-22T12:06:19.211Z,31.30
2023-05-22T12:09:02.910Z,31.41
2023-05-22T12:11:47.744Z,31.60
2023-05-22T12:14:32.331Z,31.64
2023-05-22T12:17:18.377Z,31.84
2023-05-22T12:20:01.321Z,31.88
2023-05-22T12:22:45.181Z,31.88
2023-05-22T12:25:34.887Z,31.88
2023-05-22T12:28:17.751Z,31.91
2023-05-22T12:31:00.762Z,32.00
2023-05-22T12:33:45.511Z,32.18
2023-05-22T12:36:40.276Z,32.30
2023-05-22T12:39:23.246Z,32.33
2023-05-22T12:42:08.623Z,32.35
2023-05-22T12:44:54.688Z,32.39
2023-05-22T12:47:37.815Z,32.46
2023-05-22T12:50:22.146Z,32.42
2023-05-22T12:53:04.885Z,32.37
2023-05-22T12:55:47.752Z,32.39
2023-05-22T12:58:30.633Z,32.35
2023-05-22T13:01:13.656Z,32.23
2023-05-22T13:03:56.538Z,32.20
2023-05-22T13:06:40.743Z,32.39
2023-05-22T13:09:23.823Z,32.49
2023-05-22T13:12:08.442Z,32.53
2023-05-22T13:14:51.287Z,32.46
2023-05-22T13:17:34.162Z,32.53
2023-05-22T13:20:17.075Z,32.56
2023-05-22T13:23:01.307Z,32.53
2023-05-22T13:25:44.216Z,32.37
2023-05-22T13:28:27.019Z,32.36
2023-05-22T13:31:09.968Z,32.31
2023-05-22T13:33:52.901Z,32.27
2023-05-22T13:36:35.966Z,32.31
2023-05-22T13:39:20.270Z,32.28
2023-05-22T13:42:03.168Z,32.22
2023-05-22T13:44:46.725Z,32.34
2023-05-22T13:47:29.648Z,32.61
2023-05-22T13:50:12.560Z,32.96
2023-05-22T13:52:55.680Z,32.96
2023-05-22T13:55:40.009Z,33.00
2023-05-22T13:58:23.133Z,32.93
2023-05-22T14:01:06.106Z,32.87
2023-05-22T14:03:49.693Z,32.35
2023-05-22T14:06:32.733Z,32.32
2023-05-22T14:09:15.929Z,32.19
2023-05-22T14:12:00.299Z,32.30
2023-05-22T14:14:43.752Z,32.46
2023-05-22T14:17:27.801Z,32.70
2023-05-22T14:20:11.756Z,32.88
2023-05-22T14:22:57.675Z,33.00
2023-05-22T14:25:42.951Z,33.10
2023-05-22T14:28:27.391Z,32.92
2023-05-22T14:31:11.584Z,32.61
2023-05-22T14:33:54.648Z,32.55
2023-05-22T14:36:37.702Z,32.46
2023-05-22T14:39:20.773Z,32.36
2023-05-22T14:42:03.877Z,32.42
2023-05-22T14:44:48.290Z,32.48
2023-05-22T14:47:31.612Z,32.38
2023-05-22T14:50:19.533Z,32.14
2023-05-22T14:53:03.615Z,31.91
2023-05-22T14:55:46.458Z,31.85
2023-05-22T14:58:29.342Z,31.80
2023-05-22T15:01:13.976Z,31.78
2023-05-22T15:03:56.976Z,31.64
2023-05-22T15:06:39.950Z,31.39
2023-05-22T15:09:23.676Z,31.12
2023-05-22T15:12:07.238Z,30.94
2023-05-22T15:14:50.100Z,30.71
2023-05-22T15:17:34.350Z,30.49
2023-05-22T15:20:17.619Z,30.33
2023-05-22T15:23:00.741Z,30.01
2023-05-22T15:25:44.794Z,29.69
2023-05-22T15:28:27.762Z,29.56
2023-05-22T15:31:10.642Z,29.45
2023-05-22T15:33:56.849Z,29.45
2023-05-22T15:36:40.331Z,29.30
2023-05-22T15:39:23.255Z,29.10
2023-05-22T15:42:07.110Z,29.07
2023-05-22T15:44:50.922Z,29.01
2023-05-22T15:47:33.932Z,29.05
2023-05-22T15:50:18.313Z,29.09
2023-05-22T15:53:01.550Z,29.01
2023-05-22T15:55:44.880Z,28.88
2023-05-22T15:58:28.487Z,28.66
2023-05-22T16:01:12.236Z,28.57
2023-05-22T16:03:55.123Z,28.49
2023-05-22T16:06:39.996Z,28.45
2023-05-22T16:09:23.014Z,28.33
2023-05-22T16:12:07.539Z,28.21
2023-05-22T16:14:50.908Z,28.19
2023-05-22T16:17:34.113Z,28.08
2023-05-22T16:20:17.350Z,28.02
2023-05-22T16:23:01.665Z,27.93
2023-05-22T16:25:44.431Z,27.81
2023-05-22T16:28:27.444Z,27.71
2023-05-22T16:31:10.454Z,27.56
2023-05-22T16:33:54.034Z,27.47
2023-05-22T16:36:37.673Z,27.35
2023-05-22T16:39:21.926Z,27.33
2023-05-22T16:42:05.267Z,27.34
2023-05-22T16:44:48.131Z,27.22
2023-05-22T16:47:31.155Z,27.18
2023-05-22T16:50:14.283Z,27.06
2023-05-22T16:52:57.174Z,26.96
2023-05-22T16:55:41.855Z,26.90
2023-05-22T16:58:24.871Z,26.81
2023-05-22T17:01:08.332Z,26.79
2023-05-22T17:03:51.362Z,26.79
2023-05-22T17:06:35.450Z,26.77
2023-05-22T17:09:18.451Z,26.75
2023-05-22T17:12:02.626Z,26.72
2023-05-22T17:14:45.798Z,26.66
2023-05-22T17:17:28.661Z,26.59
2023-05-22T17:20:12.723Z,26.50
2023-05-22T17:22:55.564Z,26.43
2023-05-22T17:25:38.700Z,26.37
2023-05-22T17:28:23.011Z,26.28
2023-05-22T17:31:06.385Z,26.24
2023-05-22T17:33:49.346Z,26.19
2023-05-22T17:36:33.204Z,26.06
2023-05-22T17:39:15.984Z,25.90
2023-05-22T17:42:00.363Z,25.76
2023-05-22T17:44:44.644Z,25.67
2023-05-22T17:47:27.597Z,25.58
2023-05-22T17:50:11.574Z,25.45
2023-05-22T17:52:54.536Z,25.36
2023-05-22T17:55:37.395Z,25.28
2023-05-22T17:58:21.082Z,25.22
2023-05-22T18:01:05.408Z,25.16
2023-05-22T18:03:48.307Z,25.11
2023-05-22T18:06:32.080Z,25.05
2023-05-22T18:09:15.116Z,24.98
2023-05-22T18:11:59.116Z,24.90
2023-05-22T18:14:42.036Z,24.77
2023-05-22T18:17:26.519Z,24.66
2023-05-22T18:20:12.013Z,24.54
2023-05-22T18:22:54.815Z,24.32
2023-05-22T18:25:37.676Z,24.21
2023-05-22T18:28:23.501Z,24.12
2023-05-22T18:31:06.450Z,24.02
2023-05-22T18:33:51.115Z,23.87
2023-05-22T18:36:35.266Z,23.74
2023-05-22T18:39:18.094Z,23.61
2023-05-22T18:42:01.132Z,23.49
2023-05-22T18:44:46.300Z,23.34
2023-05-22T18:47:31.044Z,23.16
2023-05-22T18:50:15.428Z,23.02
2023-05-22T18:52:58.306Z,22.90
2023-05-22T18:55:41.925Z,22.76
2023-05-22T18:58:25.867Z,22.66
2023-05-22T19:01:08.809Z,22.57
2023-05-22T19:03:51.633Z,22.48
2023-05-22T19:06:36.703Z,22.39
2023-05-22T19:09:19.500Z,22.27
2023-05-22T19:12:02.824Z,22.19
2023-05-22T19:14:48.201Z,22.11
2023-05-22T19:17:31.042Z,22.05
2023-05-22T19:20:13.974Z,22.01
2023-05-22T19:22:58.461Z,21.99
2023-05-22T19:25:41.322Z,21.96
2023-05-22T19:28:25.854Z,21.94
2023-05-22T19:31:08.755Z,21.88
2023-05-22T19:33:51.904Z,21.80
2023-05-22T19:36:36.127Z,21.72
2023-05-22T19:39:21.127Z,21.65
2023-05-22T19:42:04.095Z,21.59
2023-05-22T19:44:48.169Z,21.53
2023-05-22T19:47:31.174Z,21.46
2023-05-22T19:50:14.122Z,21.42
2023-05-22T19:52:57.004Z,21.38
2023-05-22T19:55:42.193Z,21.34
2023-05-22T19:58:25.040Z,21.29
2023-05-22T20:01:08.686Z,21.25
2023-05-22T20:03:51.959Z,21.19
2023-05-22T20:06:35.094Z,21.05
2023-05-22T20:09:18.036Z,20.98
2023-05-22T20:12:02.407Z,20.96
2023-05-22T20:14:45.203Z,20.92
2023-05-22T20:17:28.192Z,20.85
2023-05-22T20:20:12.151Z,20.82
2023-05-22T20:22:56.162Z,20.79
2023-05-22T20:25:39.189Z,20.78
2023-05-22T20:28:23.776Z,20.74
2023-05-22T20:31:06.836Z,20.70
2023-05-22T20:33:49.701Z,20.68
2023-05-22T20:36:33.444Z,20.67
2023-05-22T20:39:18.132Z,20.67
2023-05-22T20:42:02.718Z,20.64
2023-05-22T20:44:47.773Z,20.53
2023-05-22T20:47:31.007Z,20.39
2023-05-22T20:50:14.173Z,20.31
2023-05-22T20:53:00.165Z,20.26
2023-05-22T20:55:43.873Z,20.23
2023-05-22T20:58:27.329Z,20.20
2023-05-22T21:01:12.391Z,20.15
2023-05-22T21:03:56.438Z,20.08
2023-05-22T21:06:40.332Z,20.03
2023-05-22T21:09:23.218Z,20.00
2023-05-22T21:12:06.355Z,19.96
2023-05-22T21:14:49.292Z,19.92
2023-05-22T21:17:33.455Z,19.88
2023-05-22T21:20:16.432Z,19.82
2023-05-22T21:22:59.354Z,19.80
2023-05-22T21:25:42.483Z,19.76
2023-05-22T21:28:25.323Z,19.73
2023-05-22T21:31:08.173Z,19.69
2023-05-22T21:33:52.401Z,19.66
2023-05-22T21:36:35.222Z,19.64
2023-05-22T21:39:18.298Z,19.60
2023-05-22T21:42:01.185Z,19.59
2023-05-22T21:44:44.015Z,19.55
2023-05-22T21:47:27.244Z,19.53
2023-05-22T21:50:12.443Z,19.51
2023-05-22T21:52:55.287Z,19.47
2023-05-22T21:55:38.327Z,19.44
2023-05-22T21:58:21.587Z,19.42
2023-05-22T22:01:04.595Z,19.39
2023-05-22T22:03:47.474Z,19.37
2023-05-22T22:06:32.264Z,19.36
2023-05-22T22:09:15.180Z,19.33
2023-05-22T22:11:58.237Z,19.31
2023-05-22T22:14:41.173Z,19.30
2023-05-22T22:17:24.131Z,19.27
2023-05-22T22:20:09.191Z,19.28
2023-05-22T22:22:53.399Z,19.25
2023-05-22T22:25:36.323Z,19.24
2023-05-22T22:28:19.227Z,19.19
2023-05-22T22:31:02.082Z,19.17
2023-05-22T22:33:44.904Z,19.18
2023-05-22T22:36:27.878Z,19.17
2023-05-22T22:39:12.245Z,19.17
2023-05-22T22:41:55.119Z,19.15
2023-05-22T22:44:37.967Z,19.11
2023-05-22T22:47:22.022Z,19.09
2023-05-22T22:50:05.629Z,19.03
2023-05-22T22:52:48.499Z,18.97
2023-05-22T22:55:32.876Z,18.88
2023-05-22T22:58:18.702Z,18.83
2023-05-22T23:01:02.670Z,18.80
2023-05-22T23:03:45.614Z,18.78
2023-05-22T23:06:29.690Z,18.79
2023-05-22T23:09:12.735Z,18.80
2023-05-22T23:11:56.930Z,18.80
2023-05-22T23:14:39.756Z,18.80
2023-05-22T23:17:22.654Z,18.77
2023-05-22T23:20:06.477Z,18.77
2023-05-22T23:22:49.301Z,18.76
2023-05-22T23:25:32.198Z,18.73
2023-05-22T23:28:16.902Z,18.67
2023-05-22T23:30:59.769Z,18.63
2023-05-22T23:33:42.816Z,18.50
2023-05-22T23:36:26.079Z,18.41
2023-05-22T23:39:09.066Z,18.36
2023-05-22T23:41:54.147Z,18.36
2023-05-22T23:44:38.486Z,18.37
2023-05-22T23:47:21.409Z,18.37
2023-05-22T23:50:04.653Z,18.36
2023-05-22T23:52:48.445Z,18.34
2023-05-22T23:55:31.381Z,18.36
2023-05-22T23:58:15.908Z,18.36
